createdAt,value
2018-12-27T06:58:58.866Z,52.81
2018-12-27T06:59:58.823Z,51.34
2018-12-27T07:00:58.821Z,49.14
2018-12-27T07:01:58.803Z,50.32
2018-12-27T07:02:58.788Z,47.98
2018-12-27T07:03:58.775Z,44.93
2018-12-27T07:04:58.807Z,46.17
2018-12-27T07:05:58.747Z,48.40
2018-12-27T07:06:58.778Z,50.06
2018-12-27T07:07:58.743Z,47.14
2018-12-27T07:08:58.720Z,50.06
2018-12-27T07:09:58.726Z,51.45
2018-12-27T07:10:58.701Z,48.19
2018-12-27T07:11:58.689Z,48.30
2018-12-27T07:12:58.719Z,49.54
2018-12-27T07:13:58.726Z,48.49
2018-12-27T07:14:58.653Z,50.37
2018-12-27T07:15:58.647Z,49.54
2018-12-27T07:16:58.629Z,52.97
2018-12-27T07:17:58.634Z,54.25
2018-12-27T07:18:58.679Z,52.92
2018-12-27T07:19:58.596Z,51.65
2018-12-27T07:20:58.610Z,51.87
2018-12-27T07:21:58.574Z,51.87
2018-12-27T07:22:58.581Z,51.55
2018-12-27T07:23:58.561Z,51.32
2018-12-27T07:24:58.584Z,51.55
2018-12-27T07:25:58.539Z,49.64
2018-12-27T07:26:58.537Z,44.37
2018-12-27T07:27:58.584Z,46.59
2018-12-27T07:28:58.507Z,50.27
2018-12-27T07:29:58.793Z,50.16
2018-12-27T07:30:58.490Z,49.64
2018-12-27T07:31:58.475Z,44.46
2018-12-27T07:32:58.484Z,48.23
2018-12-27T07:33:58.445Z,47.39
2018-12-27T07:34:58.444Z,47.71
2018-12-27T07:35:58.619Z,46.34
2018-12-27T07:36:58.414Z,47.08
2018-12-27T07:37:59.043Z,44.02
2018-12-27T07:38:58.534Z,48.63
2018-12-27T07:39:58.420Z,50.74
2018-12-27T07:40:58.366Z,54.23
2018-12-27T07:41:58.367Z,50.67
2018-12-27T07:42:58.360Z,53.63
2018-12-27T07:43:58.335Z,49.32
2018-12-27T07:44:58.445Z,48.57
2018-12-27T07:45:58.311Z,47.71
2018-12-27T07:46:58.338Z,49.93
2018-12-27T07:47:58.287Z,53.31
2018-12-27T07:48:58.281Z,54.05
2018-12-27T07:49:58.285Z,50.46
2018-12-27T07:50:58.254Z,48.36
2018-12-27T07:51:58.247Z,47.71
2018-12-27T07:52:58.270Z,48.02
2018-12-27T07:53:58.223Z,47.71
2018-12-27T07:54:59.092Z,44.33
2018-12-27T07:55:58.204Z,51.48
2018-12-27T07:56:58.253Z,53.16
2018-12-27T07:57:58.183Z,53.05
2018-12-27T07:58:58.171Z,53.19
2018-12-27T07:59:58.213Z,52.01
2018-12-27T08:00:58.147Z,51.48
2018-12-27T08:01:58.134Z,51.79
2018-12-27T08:02:58.173Z,51.38
2018-12-27T08:03:58.114Z,47.60
2018-12-27T08:05:03.978Z,46.87
2018-12-27T08:05:59.155Z,50.96
2018-12-27T08:06:58.084Z,48.86
2018-12-27T08:07:58.121Z,43.93
2018-12-27T08:08:59.037Z,46.74
2018-12-27T08:09:58.059Z,43.60
2018-12-27T08:10:58.047Z,40.85
2018-12-27T08:11:58.038Z,45.15
2018-12-27T08:12:58.028Z,49.36
2018-12-27T08:13:58.072Z,46.72
2018-12-27T08:14:57.995Z,47.66
2018-12-27T08:15:57.985Z,46.20
2018-12-27T08:16:58.030Z,48.50
2018-12-27T08:17:58.000Z,48.63
2018-12-27T08:18:57.969Z,49.55
2018-12-27T08:19:57.987Z,53.45
2018-12-27T08:20:57.935Z,50.83
2018-12-27T08:21:57.947Z,46.62
2018-12-27T08:22:57.918Z,48.29
2018-12-27T08:23:57.908Z,49.65
2018-12-27T08:24:57.947Z,49.87
2018-12-27T08:25:57.912Z,50.38
2018-12-27T08:26:57.873Z,51.23
2018-12-27T08:27:57.881Z,50.73
2018-12-27T08:28:57.856Z,50.91
2018-12-27T08:29:57.834Z,49.99
2018-12-27T08:30:57.848Z,49.78
2018-12-27T08:31:57.860Z,48.39
2018-12-27T08:32:57.821Z,48.08
2018-12-27T08:33:57.816Z,46.51
2018-12-27T08:34:57.790Z,47.53
2018-12-27T08:35:57.779Z,46.70
2018-12-27T08:36:57.775Z,44.18
2018-12-27T08:37:57.790Z,43.66
2018-12-27T08:38:57.737Z,41.76
2018-12-27T08:39:57.760Z,46.15
2018-12-27T08:40:57.716Z,47.02
2018-12-27T08:41:57.746Z,46.17
2018-12-27T08:42:57.710Z,46.59
2018-12-27T08:43:57.691Z,46.58
2018-12-27T08:44:57.717Z,49.52
2018-12-27T08:45:57.671Z,51.10
2018-12-27T08:46:57.651Z,51.12
2018-12-27T08:47:57.703Z,50.38
2018-12-27T08:48:57.629Z,47.45
2018-12-27T08:49:57.624Z,48.58
2018-12-27T08:50:57.607Z,50.15
2018-12-27T08:51:57.611Z,50.89
2018-12-27T08:52:57.599Z,49.84
2018-12-27T08:53:57.632Z,50.91
2018-12-27T08:54:57.566Z,51.96
2018-12-27T08:55:57.553Z,51.12
2018-12-27T08:56:57.553Z,48.79
2018-12-27T08:57:57.545Z,46.70
2018-12-27T08:58:57.537Z,41.55
2018-12-27T08:59:57.565Z,44.79
2018-12-27T09:00:57.504Z,46.36
2018-12-27T09:01:57.544Z,43.64
2018-12-27T09:02:57.484Z,43.52
2018-12-27T09:03:57.484Z,42.36
2018-12-27T09:04:57.485Z,42.99
2018-12-27T09:05:57.488Z,42.36
2018-12-27T09:06:57.450Z,44.15
2018-12-27T09:07:57.475Z,46.14
2018-12-27T09:08:57.429Z,45.92
2018-12-27T09:09:57.457Z,44.56
2018-12-27T09:10:57.420Z,46.24
2018-12-27T09:11:57.387Z,44.88
2018-12-27T09:12:57.394Z,43.62
2018-12-27T09:13:57.374Z,41.85
2018-12-27T09:14:57.381Z,39.63
2018-12-27T09:16:04.945Z,39.31
2018-12-27T09:16:57.337Z,41.09
2018-12-27T09:17:57.348Z,42.03
2018-12-27T09:18:57.367Z,42.14
2018-12-27T09:19:57.333Z,41.20
2018-12-27T09:20:57.301Z,44.54
2018-12-27T09:21:57.296Z,41.41
2018-12-27T09:22:57.291Z,40.76
2018-12-27T09:23:57.278Z,40.76
2018-12-27T09:24:57.319Z,40.03
2018-12-27T09:25:57.251Z,40.97
2018-12-27T09:26:57.233Z,38.86
2018-12-27T09:27:57.228Z,38.96
2018-12-27T09:28:57.214Z,37.73
2018-12-27T09:29:57.210Z,36.15
2018-12-27T09:30:57.237Z,36.57
2018-12-27T09:31:57.185Z,36.96
2018-12-27T09:32:57.196Z,37.90
2018-12-27T09:33:57.153Z,37.49
2018-12-27T09:34:57.144Z,34.46
2018-12-27T09:35:57.128Z,35.71
2018-12-27T09:36:57.188Z,37.59
2018-12-27T09:37:57.128Z,38.53
2018-12-27T09:38:57.102Z,38.95
2018-12-27T09:39:57.098Z,34.67
2018-12-27T09:40:57.105Z,36.11
2018-12-27T09:41:57.066Z,33.19
2018-12-27T09:42:57.096Z,30.98
2018-12-27T09:43:57.052Z,29.39
2018-12-27T09:44:57.036Z,34.81
2018-12-27T09:45:57.025Z,34.52
2018-12-27T09:46:57.076Z,40.03
2018-12-27T09:47:57.007Z,37.38
2018-12-27T09:48:56.990Z,33.07
2018-12-27T09:49:57.121Z,33.75
2018-12-27T09:50:56.977Z,30.79
2018-12-27T09:52:02.053Z,30.74
2018-12-27T09:52:58.005Z,30.79
2018-12-27T09:53:56.963Z,31.69
2018-12-27T09:54:56.949Z,31.68
2018-12-27T09:55:56.919Z,29.10
2018-12-27T09:56:56.911Z,27.96
2018-12-27T09:57:56.901Z,29.20
2018-12-27T09:58:56.926Z,26.81
2018-12-27T09:59:56.902Z,24.22
2018-12-27T10:00:56.861Z,26.38
2018-12-27T10:01:56.861Z,23.39
2018-12-27T10:02:56.867Z,24.41
2018-12-27T10:03:56.847Z,24.62
2018-12-27T10:04:56.847Z,26.38
2018-12-27T10:05:57.064Z,28.32
2018-12-27T10:06:56.790Z,25.55
2018-12-27T10:07:57.510Z,28.25
2018-12-27T10:08:56.807Z,28.54
2018-12-27T10:09:56.762Z,26.67
2018-12-27T10:10:56.812Z,28.19
2018-12-27T10:11:56.742Z,27.23
2018-12-27T10:12:56.740Z,28.37
2018-12-27T10:13:56.773Z,31.60
2018-12-27T10:14:56.710Z,30.02
2018-12-27T10:15:56.702Z,29.80
2018-12-27T10:16:56.740Z,30.13
2018-12-27T10:17:56.674Z,30.63
2018-12-27T10:18:56.663Z,29.88
2018-12-27T10:19:56.686Z,28.08
2018-12-27T10:20:56.637Z,29.21
2018-12-27T10:21:56.657Z,29.62
2018-12-27T10:22:56.672Z,28.60
2018-12-27T10:23:56.606Z,27.97
2018-12-27T10:24:57.558Z,30.62
2018-12-27T10:25:56.630Z,28.66
2018-12-27T10:26:56.583Z,25.16
2018-12-27T10:27:56.636Z,23.21
2018-12-27T10:28:56.579Z,23.61
2018-12-27T10:29:56.615Z,24.85
2018-12-27T10:30:59.961Z,23.72
2018-12-27T10:31:56.515Z,24.54
2018-12-27T10:32:56.519Z,24.24
2018-12-27T10:33:56.499Z,25.46
2018-12-27T10:34:56.497Z,27.31
2018-12-27T10:35:56.524Z,27.81
2018-12-27T10:36:56.465Z,28.37
2018-12-27T10:37:56.454Z,30.04
2018-12-27T10:38:56.450Z,30.57
2018-12-27T10:39:56.434Z,30.15
2018-12-27T10:40:56.431Z,28.97
2018-12-27T10:41:56.456Z,28.12
2018-12-27T10:42:56.406Z,27.42
2018-12-27T10:43:56.391Z,27.36
2018-12-27T10:44:56.382Z,27.75
2018-12-27T10:45:56.366Z,26.78
2018-12-27T10:46:56.354Z,29.64
2018-12-27T10:47:56.400Z,27.76
2018-12-27T10:48:56.351Z,27.15
2018-12-27T10:49:56.345Z,27.34
2018-12-27T10:50:56.317Z,25.47
2018-12-27T10:51:56.306Z,27.23
2018-12-27T10:52:56.292Z,26.10
2018-12-27T10:53:56.331Z,26.28
2018-12-27T10:54:56.279Z,26.26
2018-12-27T10:55:56.274Z,27.74
2018-12-27T10:56:56.259Z,27.94
2018-12-27T10:57:56.277Z,25.39
2018-12-27T10:58:56.232Z,26.33
2018-12-27T10:59:56.253Z,29.49
2018-12-27T11:00:56.215Z,28.36
2018-12-27T11:01:56.382Z,27.51
2018-12-27T11:02:56.238Z,26.70
2018-12-27T11:03:57.010Z,26.90
2018-12-27T11:04:57.469Z,29.61
2018-12-27T11:05:56.151Z,30.44
2018-12-27T11:06:56.159Z,29.71
2018-12-27T11:07:56.141Z,29.93
2018-12-27T11:08:56.167Z,28.99
2018-12-27T11:09:56.120Z,30.30
2018-12-27T11:10:56.106Z,29.58
2018-12-27T11:11:56.104Z,28.49
2018-12-27T11:12:56.082Z,29.09
2018-12-27T11:13:56.068Z,29.10
2018-12-27T11:14:56.100Z,29.13
2018-12-27T11:15:56.282Z,28.72
2018-12-27T11:16:56.059Z,31.28
2018-12-27T11:17:56.023Z,30.22
2018-12-27T11:18:56.024Z,26.93
2018-12-27T11:19:56.068Z,29.90
2018-12-27T11:20:56.031Z,30.81
2018-12-27T11:21:56.004Z,31.20
2018-12-27T11:22:55.970Z,25.96
2018-12-27T11:23:55.958Z,28.47
2018-12-27T11:24:55.947Z,28.99
2018-12-27T11:25:55.946Z,28.47
2018-12-27T11:26:55.974Z,28.96
2018-12-27T11:27:55.924Z,29.06
2018-12-27T11:28:55.912Z,29.91
2018-12-27T11:29:55.900Z,28.17
2018-12-27T11:30:55.887Z,28.86
2018-12-27T11:31:55.872Z,28.47
2018-12-27T11:32:55.898Z,29.27
2018-12-27T11:33:55.984Z,30.59
2018-12-27T11:34:55.847Z,29.08
2018-12-27T11:35:56.137Z,29.06
2018-12-27T11:36:55.864Z,29.37
2018-12-27T11:37:55.807Z,28.31
2018-12-27T11:38:55.822Z,26.37
2018-12-27T11:39:55.804Z,29.47
2018-12-27T11:40:55.786Z,30.81
2018-12-27T11:41:55.770Z,30.41
2018-12-27T11:42:55.812Z,32.67
2018-12-27T11:43:55.758Z,32.87
2018-12-27T11:44:55.777Z,27.10
2018-12-27T11:45:55.738Z,29.28
2018-12-27T11:46:55.726Z,33.60
2018-12-27T11:47:55.731Z,32.91
2018-12-27T11:48:55.734Z,34.95
2018-12-27T11:49:55.679Z,31.78
2018-12-27T11:50:55.697Z,32.67
2018-12-27T11:51:55.672Z,33.19
2018-12-27T11:52:55.653Z,32.78
2018-12-27T11:53:55.657Z,33.10
2018-12-27T11:54:55.674Z,30.53
2018-12-27T11:55:55.619Z,31.13
2018-12-27T11:56:55.604Z,32.87
2018-12-27T11:57:55.597Z,30.94
2018-12-27T11:58:55.582Z,31.03
2018-12-27T11:59:55.594Z,29.88
2018-12-27T12:00:55.633Z,28.45
2018-12-27T12:01:55.549Z,29.39
2018-12-27T12:02:55.549Z,28.56
2018-12-27T12:03:55.545Z,26.57
2018-12-27T12:04:55.522Z,28.29
2018-12-27T12:05:55.520Z,25.22
2018-12-27T12:06:55.539Z,28.27
2018-12-27T12:07:55.506Z,29.00
2018-12-27T12:08:55.480Z,27.45
2018-12-27T12:09:55.462Z,27.65
2018-12-27T12:10:55.466Z,27.19
2018-12-27T12:11:55.446Z,27.42
2018-12-27T12:12:55.480Z,28.54
2018-12-27T12:13:55.439Z,29.06
2018-12-27T12:14:55.425Z,30.53
2018-12-27T12:15:55.408Z,28.87
2018-12-27T12:16:55.393Z,31.24
2018-12-27T12:17:55.401Z,28.37
2018-12-27T12:18:55.554Z,28.58
2018-12-27T12:19:55.357Z,29.41
2018-12-27T12:20:55.363Z,30.31
2018-12-27T12:21:55.359Z,28.86
2018-12-27T12:22:55.325Z,28.64
2018-12-27T12:23:55.335Z,28.32
2018-12-27T12:24:55.384Z,30.68
2018-12-27T12:25:55.362Z,28.34
2018-12-27T12:26:55.306Z,28.14
2018-12-27T12:27:55.271Z,26.48
2018-12-27T12:28:55.263Z,26.37
2018-12-27T12:29:55.253Z,27.29
2018-12-27T12:30:55.307Z,26.78
2018-12-27T12:31:55.237Z,25.97
2018-12-27T12:32:55.292Z,26.69
2018-12-27T12:33:55.208Z,26.69
2018-12-27T12:34:55.198Z,30.49
2018-12-27T12:35:55.203Z,31.10
2018-12-27T12:36:55.205Z,31.12
2018-12-27T12:37:55.209Z,31.00
2018-12-27T12:38:55.161Z,31.40
2018-12-27T12:39:55.152Z,31.20
2018-12-27T12:40:55.128Z,30.78
2018-12-27T12:41:55.129Z,29.37
2018-12-27T12:42:55.117Z,27.62
2018-12-27T12:43:55.199Z,28.32
2018-12-27T12:44:55.088Z,28.55
2018-12-27T12:45:55.077Z,29.27
2018-12-27T12:46:55.063Z,28.56
2018-12-27T12:47:55.061Z,28.16
2018-12-27T12:48:55.045Z,31.54
2018-12-27T12:49:55.075Z,34.01
2018-12-27T12:50:55.023Z,31.24
2018-12-27T12:51:55.008Z,29.99
2018-12-27T12:52:55.065Z,30.28
2018-12-27T12:53:55.024Z,29.65
2018-12-27T12:54:54.983Z,27.60
2018-12-27T12:55:55.014Z,29.23
2018-12-27T12:56:54.960Z,28.80
2018-12-27T12:57:54.956Z,28.39
2018-12-27T12:58:54.972Z,28.61
2018-12-27T12:59:55.019Z,29.64
2018-12-27T13:00:54.918Z,27.98
2018-12-27T13:01:54.954Z,26.65
2018-12-27T13:02:54.900Z,26.25
2018-12-27T13:03:54.894Z,24.82
2018-12-27T13:04:54.871Z,23.08
2018-12-27T13:05:54.890Z,24.32
2018-12-27T13:06:54.871Z,26.77
2018-12-27T13:07:54.878Z,28.94
2018-12-27T13:08:54.824Z,31.00
2018-12-27T13:09:54.814Z,31.32
2018-12-27T13:10:54.800Z,33.38
2018-12-27T13:11:54.831Z,32.67
2018-12-27T13:12:54.774Z,32.26
2018-12-27T13:13:54.804Z,33.70
2018-12-27T13:14:54.755Z,34.71
2018-12-27T13:15:54.773Z,35.74
2018-12-27T13:16:54.779Z,33.60
2018-12-27T13:17:54.726Z,33.50
2018-12-27T13:18:54.717Z,35.16
2018-12-27T13:19:54.750Z,35.67
2018-12-27T13:20:54.690Z,35.16
2018-12-27T13:21:54.682Z,32.18
2018-12-27T13:22:54.675Z,34.73
2018-12-27T13:23:54.662Z,31.13
2018-12-27T13:24:54.658Z,33.19
2018-12-27T13:25:54.676Z,31.03
2018-12-27T13:26:54.772Z,30.02
2018-12-27T13:27:54.627Z,33.01
2018-12-27T13:28:54.613Z,34.14
2018-12-27T13:29:54.713Z,34.95
2018-12-27T13:30:54.594Z,37.85
2018-12-27T13:31:54.730Z,37.21
2018-12-27T13:32:54.567Z,37.83
2018-12-27T13:33:54.544Z,36.10
2018-12-27T13:34:54.548Z,40.13
2018-12-27T13:35:54.531Z,41.28
2018-12-27T13:36:54.526Z,42.41
2018-12-27T13:37:54.559Z,42.41
2018-12-27T13:38:54.538Z,41.30
2018-12-27T13:39:54.509Z,40.39
2018-12-27T13:40:54.481Z,41.73
2018-12-27T13:41:54.487Z,41.63
2018-12-27T13:42:54.463Z,37.81
2018-12-27T13:43:54.440Z,40.70
2018-12-27T13:44:54.471Z,42.16
2018-12-27T13:45:54.424Z,41.64
2018-12-27T13:46:54.406Z,42.08
2018-12-27T13:47:54.436Z,39.93
2018-12-27T13:48:54.395Z,38.57
2018-12-27T13:49:54.417Z,42.29
2018-12-27T13:50:54.371Z,43.75
2018-12-27T13:51:54.357Z,42.41
2018-12-27T13:52:54.342Z,43.66
2018-12-27T13:53:54.334Z,41.79
2018-12-27T13:54:54.323Z,43.23
2018-12-27T13:55:54.365Z,41.27
2018-12-27T13:56:54.337Z,44.39
2018-12-27T13:57:54.296Z,44.41
2018-12-27T13:58:54.285Z,44.31
2018-12-27T13:59:54.297Z,47.32
2018-12-27T14:00:54.254Z,49.49
2018-12-27T14:01:54.286Z,44.24
2018-12-27T14:02:54.237Z,45.69
2018-12-27T14:03:54.495Z,47.97
2018-12-27T14:04:54.222Z,49.31
2018-12-27T14:05:54.209Z,49.62
2018-12-27T14:06:54.200Z,47.99
2018-12-27T14:07:54.222Z,42.38
2018-12-27T14:08:54.168Z,47.76
2018-12-27T14:09:54.161Z,46.00
2018-12-27T14:10:54.162Z,46.33
2018-12-27T14:11:54.136Z,46.93
2018-12-27T14:12:54.126Z,46.95
2018-12-27T14:13:54.173Z,41.47
2018-12-27T14:14:54.107Z,41.14
2018-12-27T14:15:54.113Z,40.62
2018-12-27T14:16:54.144Z,45.81
2018-12-27T14:17:54.077Z,45.94
2018-12-27T14:18:54.080Z,48.03
2018-12-27T14:19:54.058Z,45.34
2018-12-27T14:20:54.093Z,50.62
2018-12-27T14:21:54.074Z,46.48
2018-12-27T14:22:54.213Z,47.92
2018-12-27T14:23:54.006Z,47.52
2018-12-27T14:24:57.828Z,48.86
2018-12-27T14:25:53.980Z,50.64
2018-12-27T14:26:53.969Z,50.33
2018-12-27T14:27:54.016Z,49.51
2018-12-27T14:28:53.942Z,50.33
2018-12-27T14:29:53.941Z,51.91
2018-12-27T14:30:53.943Z,50.56
2018-12-27T14:31:53.907Z,49.52
2018-12-27T14:32:53.899Z,47.56
2018-12-27T14:33:53.917Z,45.05
2018-12-27T14:34:53.880Z,49.63
2018-12-27T14:35:53.929Z,49.63
2018-12-27T14:36:53.854Z,51.18
2018-12-27T14:37:56.477Z,50.77
2018-12-27T14:38:53.859Z,50.17
2018-12-27T14:39:54.467Z,48.60
2018-12-27T14:40:53.818Z,49.11
2018-12-27T14:41:53.876Z,49.84
2018-12-27T14:42:53.799Z,50.46
2018-12-27T14:43:53.780Z,47.04
2018-12-27T14:44:53.887Z,48.16
2018-12-27T14:45:54.473Z,49.21
2018-12-27T14:46:53.751Z,47.97
2018-12-27T14:47:55.526Z,50.38
2018-12-27T14:48:53.725Z,48.82
2018-12-27T14:49:53.730Z,49.68
2018-12-27T14:50:53.709Z,49.78
2018-12-27T14:51:53.807Z,51.13
2018-12-27T14:52:53.683Z,50.61
2018-12-27T14:53:53.681Z,50.20
2018-12-27T14:54:53.672Z,51.98
2018-12-27T14:55:53.654Z,47.11
2018-12-27T14:56:53.645Z,46.04
2018-12-27T14:57:53.714Z,49.49
2018-12-27T14:58:53.631Z,50.01
2018-12-27T14:59:53.610Z,50.53
2018-12-27T15:00:53.610Z,51.28
2018-12-27T15:01:53.592Z,52.11
2018-12-27T15:02:53.582Z,50.99
2018-12-27T15:03:53.618Z,48.06
2018-12-27T15:04:53.603Z,50.45
2018-12-27T15:05:53.549Z,50.47
2018-12-27T15:06:53.541Z,48.16
2018-12-27T15:07:53.537Z,49.74
2018-12-27T15:08:53.513Z,50.26
2018-12-27T15:09:53.544Z,51.64
2018-12-27T15:10:53.500Z,50.81
2018-12-27T15:11:53.483Z,49.25
2018-12-27T15:12:53.510Z,51.35
2018-12-27T15:13:53.454Z,51.01
2018-12-27T15:14:53.459Z,51.45
2018-12-27T15:15:53.474Z,52.39
2018-12-27T15:16:53.426Z,51.45
2018-12-27T15:17:53.407Z,50.93
2018-12-27T15:18:53.429Z,51.35
2018-12-27T15:19:53.387Z,50.52
2018-12-27T15:20:53.380Z,50.62
2018-12-27T15:21:53.465Z,47.17
2018-12-27T15:22:53.371Z,49.87
2018-12-27T15:23:53.389Z,48.31
2018-12-27T15:24:54.110Z,50.31
2018-12-27T15:25:53.323Z,50.62
2018-12-27T15:26:53.332Z,47.89
2018-12-27T15:27:53.303Z,49.25
2018-12-27T15:28:53.317Z,47.89
2018-12-27T15:29:53.313Z,50.83
2018-12-27T15:30:53.272Z,52.70
2018-12-27T15:31:53.260Z,53.97
2018-12-27T15:32:53.282Z,55.43
2018-12-27T15:33:53.236Z,53.48
2018-12-27T15:34:53.277Z,54.10
2018-12-27T15:35:53.212Z,54.21
2018-12-27T15:36:54.481Z,54.52
2018-12-27T15:37:53.191Z,51.21
2018-12-27T15:38:53.217Z,52.44
2018-12-27T15:39:53.196Z,54.02
2018-12-27T15:40:53.162Z,55.16
2018-12-27T15:41:53.192Z,51.42
2018-12-27T15:42:53.135Z,50.04
2018-12-27T15:43:53.138Z,50.85
2018-12-27T15:44:53.154Z,49.84
2018-12-27T15:45:53.137Z,50.12
2018-12-27T15:46:53.098Z,53.06
2018-12-27T15:47:53.086Z,53.08
2018-12-27T15:48:53.084Z,50.79
2018-12-27T15:49:53.062Z,53.19
2018-12-27T15:50:53.096Z,53.71
2018-12-27T15:51:53.067Z,51.84
2018-12-27T15:52:53.071Z,53.40
2018-12-27T15:53:53.020Z,55.16
2018-12-27T15:54:53.042Z,54.13
2018-12-27T15:55:53.000Z,51.40
2018-12-27T15:56:52.985Z,53.40
2018-12-27T15:57:52.978Z,51.92
2018-12-27T15:58:53.010Z,52.85
2018-12-27T15:59:52.971Z,54.10
2018-12-27T16:00:52.940Z,54.64
2018-12-27T16:01:52.941Z,53.71
2018-12-27T16:02:52.924Z,54.96
2018-12-27T16:03:52.909Z,54.33
2018-12-27T16:04:52.945Z,52.25
2018-12-27T16:05:52.934Z,53.19
2018-12-27T16:06:52.878Z,54.23
2018-12-27T16:07:52.885Z,56.52
2018-12-27T16:08:52.858Z,54.99
2018-12-27T16:09:52.887Z,55.19
2018-12-27T16:10:52.836Z,50.48
2018-12-27T16:11:52.850Z,54.23
2018-12-27T16:12:52.813Z,51.00
2018-12-27T16:13:52.800Z,49.01
2018-12-27T16:14:52.794Z,51.06
2018-12-27T16:15:52.817Z,51.09
2018-12-27T16:16:52.771Z,54.02
2018-12-27T16:17:52.784Z,52.77
2018-12-27T16:18:52.743Z,54.41
2018-12-27T16:19:52.739Z,54.23
2018-12-27T16:20:52.729Z,56.62
2018-12-27T16:21:52.766Z,57.87
2018-12-27T16:22:52.705Z,56.21
2018-12-27T16:23:52.719Z,56.41
2018-12-27T16:24:52.681Z,55.40
2018-12-27T16:25:52.674Z,54.23
2018-12-27T16:26:52.673Z,53.81
2018-12-27T16:27:52.685Z,52.87
2018-12-27T16:28:52.646Z,55.90
2018-12-27T16:29:52.701Z,56.44
2018-12-27T16:30:52.618Z,56.54
2018-12-27T16:31:55.500Z,51.21
2018-12-27T16:32:53.591Z,50.56
2018-12-27T16:33:53.429Z,48.38
2018-12-27T16:34:52.571Z,53.50
2018-12-27T16:35:53.071Z,53.71
2018-12-27T16:36:52.801Z,54.33
2018-12-27T16:37:52.543Z,54.33
2018-12-27T16:38:52.537Z,55.61
2018-12-27T16:39:52.567Z,55.82
2018-12-27T16:40:52.513Z,56.34
2018-12-27T16:41:53.428Z,56.23
2018-12-27T16:42:52.687Z,56.54
2018-12-27T16:43:53.498Z,54.46
2018-12-27T16:44:53.040Z,50.79
2018-12-27T16:45:54.429Z,55.90
2018-12-27T16:46:52.446Z,56.65
2018-12-27T16:47:52.433Z,54.25
2018-12-27T16:48:52.466Z,56.02
2018-12-27T16:49:52.449Z,56.13
2018-12-27T16:50:52.561Z,55.61
2018-12-27T16:51:52.389Z,55.71
2018-12-27T16:52:52.379Z,56.26
2018-12-27T16:53:52.370Z,56.76
2018-12-27T16:54:52.409Z,57.71
2018-12-27T16:55:52.351Z,58.24
2018-12-27T16:56:52.333Z,55.22
2018-12-27T16:57:52.342Z,56.44
2018-12-27T16:58:52.312Z,57.38
2018-12-27T16:59:52.310Z,56.13
2018-12-27T17:00:52.344Z,58.21
2018-12-27T17:01:52.280Z,58.32
2018-12-27T17:02:52.272Z,58.21
2018-12-27T17:03:52.262Z,58.11
2018-12-27T17:04:52.247Z,57.71
2018-12-27T17:05:52.247Z,54.36
2018-12-27T17:06:52.269Z,56.23
2018-12-27T17:07:52.221Z,56.54
2018-12-27T17:08:52.204Z,52.80
2018-12-27T17:09:52.194Z,49.86
2018-12-27T17:10:52.191Z,49.55
2018-12-27T17:11:52.172Z,51.42
2018-12-27T17:12:52.200Z,52.98
2018-12-27T17:13:52.157Z,54.23
2018-12-27T17:14:52.141Z,53.71
2018-12-27T17:15:52.142Z,54.02
2018-12-27T17:16:52.123Z,53.08
2018-12-27T17:17:52.112Z,55.19
2018-12-27T17:18:52.141Z,56.65
2018-12-27T17:19:52.094Z,56.54
2018-12-27T17:20:52.075Z,56.44
2018-12-27T17:21:52.066Z,54.46
2018-12-27T17:22:52.594Z,57.79
2018-12-27T17:23:52.049Z,56.86
2018-12-27T17:24:52.076Z,58.94
2018-12-27T17:25:52.042Z,58.53
2018-12-27T17:26:52.014Z,53.00
2018-12-27T17:27:51.999Z,52.28
2018-12-27T17:28:51.987Z,56.13
2018-12-27T17:29:52.028Z,57.79
2018-12-27T17:30:51.974Z,59.56
2018-12-27T17:31:51.997Z,55.61
2018-12-27T17:32:51.959Z,55.61
2018-12-27T17:33:51.954Z,56.34
2018-12-27T17:34:51.999Z,55.61
2018-12-27T17:35:51.931Z,55.19
2018-12-27T17:36:51.911Z,54.57
2018-12-27T17:37:51.892Z,54.23
2018-12-27T17:38:51.881Z,55.27
2018-12-27T17:39:51.872Z,56.02
2018-12-27T17:40:51.898Z,57.59
2018-12-27T17:41:51.864Z,55.51
2018-12-27T17:42:51.844Z,55.09
2018-12-27T17:43:51.828Z,55.19
2018-12-27T17:44:51.813Z,55.51
2018-12-27T17:45:51.803Z,54.02
2018-12-27T17:46:51.825Z,57.35
2018-12-27T17:47:51.804Z,58.94
2018-12-27T17:48:51.774Z,60.30
2018-12-27T17:49:51.797Z,59.15
2018-12-27T17:50:51.748Z,55.61
2018-12-27T17:51:51.742Z,56.02
2018-12-27T17:52:51.730Z,54.36
2018-12-27T17:53:51.761Z,56.44
2018-12-27T17:54:51.775Z,56.54
2018-12-27T17:55:51.702Z,57.93
2018-12-27T17:56:51.688Z,55.40
2018-12-27T17:57:51.680Z,55.92
2018-12-27T17:58:51.669Z,55.82
2018-12-27T17:59:51.659Z,59.36
2018-12-27T18:00:51.691Z,57.93
2018-12-27T18:01:51.635Z,55.19
2018-12-27T18:02:51.645Z,54.57
2018-12-27T18:03:51.653Z,55.30
2018-12-27T18:04:51.598Z,58.45
2018-12-27T18:05:51.597Z,58.03
2018-12-27T18:06:51.641Z,58.55
2018-12-27T18:07:51.571Z,55.74
2018-12-27T18:08:51.564Z,54.07
2018-12-27T18:09:51.551Z,56.57
2018-12-27T18:10:51.557Z,58.24
2018-12-27T18:11:51.525Z,57.71
2018-12-27T18:12:51.561Z,58.76
2018-12-27T18:13:51.503Z,58.03
2018-12-27T18:14:51.492Z,55.63
2018-12-27T18:15:51.489Z,58.32
2018-12-27T18:16:51.477Z,58.24
2018-12-27T18:17:51.565Z,59.39
2018-12-27T18:18:51.489Z,60.35
2018-12-27T18:19:51.435Z,59.10
2018-12-27T18:20:51.425Z,57.01
2018-12-27T18:21:51.416Z,58.47
2018-12-27T18:22:51.402Z,59.31
2018-12-27T18:23:51.413Z,58.89
2018-12-27T18:24:51.425Z,60.25
2018-12-27T18:25:51.375Z,58.89
2018-12-27T18:26:51.370Z,58.68
2018-12-27T18:27:51.349Z,59.93
2018-12-27T18:28:51.338Z,59.72
2018-12-27T18:29:51.350Z,60.56
2018-12-27T18:30:51.353Z,61.08
2018-12-27T18:31:51.304Z,60.25
2018-12-27T18:32:51.296Z,57.75
2018-12-27T18:33:51.285Z,57.09
2018-12-27T18:34:51.275Z,58.65
2018-12-27T18:35:51.285Z,58.14
2018-12-27T18:36:51.292Z,59.52
2018-12-27T18:37:51.238Z,59.52
2018-12-27T18:38:51.229Z,58.26
2018-12-27T18:39:51.223Z,56.78
2018-12-27T18:40:51.207Z,55.11
2018-12-27T18:41:51.195Z,54.69
2018-12-27T18:42:51.243Z,54.25
2018-12-27T18:43:51.174Z,51.54
2018-12-27T18:44:51.165Z,55.19
2018-12-27T18:45:51.153Z,55.40
2018-12-27T18:46:51.147Z,55.40
2018-12-27T18:47:51.166Z,56.05
2018-12-27T18:48:51.158Z,58.45
2018-12-27T18:49:51.117Z,58.24
2018-12-27T18:50:51.109Z,57.20
2018-12-27T18:51:51.172Z,58.24
2018-12-27T18:52:51.092Z,58.14
2018-12-27T18:53:51.118Z,60.53
2018-12-27T18:54:51.059Z,61.05
2018-12-27T18:55:51.109Z,61.18
2018-12-27T18:56:51.036Z,61.05
2018-12-27T18:57:51.051Z,60.01
2018-12-27T18:58:51.023Z,59.93
2018-12-27T18:59:51.109Z,58.97
2018-12-27T19:00:51.003Z,59.39
2018-12-27T19:01:51.029Z,59.31
2018-12-27T19:02:51.034Z,59.00
2018-12-27T19:03:50.988Z,60.04
2018-12-27T19:04:50.953Z,59.62
2018-12-27T19:05:50.949Z,58.45
2018-12-27T19:06:50.939Z,58.14
2018-12-27T19:07:50.998Z,56.57
2018-12-27T19:08:50.905Z,57.82
2018-12-27T19:09:51.787Z,56.99
2018-12-27T19:10:51.731Z,56.68
2018-12-27T19:11:52.434Z,56.05
2018-12-27T19:12:50.859Z,58.34
2018-12-27T19:13:51.401Z,58.45
2018-12-27T19:14:50.903Z,56.78
2018-12-27T19:15:50.835Z,56.57
2018-12-27T19:16:50.816Z,53.55
2018-12-27T19:17:50.849Z,57.69
2018-12-27T19:18:50.831Z,59.28
2018-12-27T19:19:50.801Z,60.22
2018-12-27T19:20:50.776Z,59.39
2018-12-27T19:21:50.783Z,59.00
2018-12-27T19:22:50.757Z,58.24
2018-12-27T19:23:50.783Z,60.14
2018-12-27T19:24:50.733Z,56.18
2018-12-27T19:25:50.780Z,56.81
2018-12-27T19:26:50.711Z,56.05
2018-12-27T19:27:50.718Z,58.34
2018-12-27T19:28:50.746Z,59.00
2018-12-27T19:29:50.680Z,58.37
2018-12-27T19:30:50.664Z,58.89
2018-12-27T19:31:50.695Z,59.00
2018-12-27T19:32:50.642Z,58.58
2018-12-27T19:33:50.629Z,59.83
2018-12-27T19:34:50.739Z,53.97
2018-12-27T19:35:50.611Z,54.46
2018-12-27T19:36:50.609Z,53.11
2018-12-27T19:37:52.177Z,54.46
2018-12-27T19:38:50.588Z,57.79
2018-12-27T19:39:50.638Z,60.11
2018-12-27T19:40:50.555Z,62.09
2018-12-27T19:41:50.548Z,60.97
2018-12-27T19:42:50.532Z,59.83
2018-12-27T19:43:50.564Z,58.03
2018-12-27T19:44:50.537Z,55.61
2018-12-27T19:45:50.502Z,56.02
2018-12-27T19:46:50.492Z,58.32
2018-12-27T19:47:50.474Z,58.65
2018-12-27T19:48:50.469Z,58.03
2018-12-27T19:49:50.522Z,59.17
2018-12-27T19:50:50.458Z,59.83